createdAt,value
2017-11-10T00:00:51.647Z,958.14
2017-11-10T00:01:51.630Z,958.17
2017-11-10T00:02:51.617Z,958.15
2017-11-10T00:03:51.604Z,958.13
2017-11-10T00:04:51.590Z,958.1
2017-11-10T00:05:51.585Z,958.03
2017-11-10T00:06:51.561Z,958.01
2017-11-10T00:07:51.548Z,958.01
2017-11-10T00:08:51.534Z,958
2017-11-10T00:09:51.518Z,957.96
2017-11-10T00:10:51.505Z,957.92
2017-11-10T00:11:51.492Z,957.89
2017-11-10T00:12:51.477Z,957.89
2017-11-10T00:13:51.464Z,957.91
2017-11-10T00:14:51.449Z,957.88
2017-11-10T00:15:51.436Z,957.89
2017-11-10T00:16:51.421Z,957.9
2017-11-10T00:17:51.408Z,957.84
2017-11-10T00:18:51.393Z,957.79
2017-11-10T00:19:51.381Z,957.77
2017-11-10T00:20:51.365Z,957.75
2017-11-10T00:21:51.350Z,957.76
2017-11-10T00:22:51.338Z,957.78
2017-11-10T00:23:51.324Z,957.72
2017-11-10T00:24:51.309Z,957.74
2017-11-10T00:25:51.309Z,957.68
2017-11-10T00:26:51.282Z,957.64
2017-11-10T00:27:51.268Z,957.67
2017-11-10T00:28:51.254Z,957.66
2017-11-10T00:29:51.242Z,957.61
2017-11-10T00:30:51.227Z,957.61
2017-11-10T00:31:51.212Z,957.6
2017-11-10T00:32:51.198Z,957.62
2017-11-10T00:33:51.195Z,957.6
2017-11-10T00:34:51.171Z,957.56
2017-11-10T00:35:51.156Z,957.57
2017-11-10T00:36:51.147Z,957.57
2017-11-10T00:37:51.128Z,957.57
2017-11-10T00:38:51.114Z,957.57
2017-11-10T00:39:51.100Z,957.56
2017-11-10T00:40:51.086Z,957.56
2017-11-10T00:41:51.073Z,957.6
2017-11-10T00:42:51.061Z,957.56
2017-11-10T00:43:51.062Z,957.57
2017-11-10T00:44:51.031Z,957.54
2017-11-10T00:45:51.014Z,957.56
2017-11-10T00:46:51.002Z,957.51
2017-11-10T00:47:50.988Z,957.51
2017-11-10T00:48:50.975Z,957.52
2017-11-10T00:49:50.959Z,957.53
2017-11-10T00:50:50.945Z,957.52
2017-11-10T00:51:50.934Z,957.55
2017-11-10T00:52:50.917Z,957.5
2017-11-10T00:53:50.904Z,957.51
2017-11-10T00:54:50.889Z,957.49
2017-11-10T00:55:50.876Z,957.47
2017-11-10T00:56:50.861Z,957.44
2017-11-10T00:57:50.849Z,957.41
2017-11-10T00:58:50.833Z,957.37
2017-11-10T00:59:50.820Z,957.36
2017-11-10T01:00:50.806Z,957.34
2017-11-10T01:01:50.797Z,957.29
2017-11-10T01:02:50.777Z,957.24
2017-11-10T01:03:50.764Z,957.21
2017-11-10T01:04:50.750Z,957.21
2017-11-10T01:05:50.736Z,957.17
2017-11-10T01:06:50.725Z,957.18
2017-11-10T01:07:50.730Z,957.17
2017-11-10T01:08:50.692Z,957.18
2017-11-10T01:09:50.689Z,957.18
2017-11-10T01:10:50.666Z,957.2
2017-11-10T01:11:50.653Z,957.24
2017-11-10T01:12:50.637Z,957.22
2017-11-10T01:13:50.625Z,957.28
2017-11-10T01:14:50.610Z,957.28
2017-11-10T01:15:50.595Z,957.28
2017-11-10T01:16:50.581Z,957.25
2017-11-10T01:17:50.568Z,957.21
2017-11-10T01:18:50.555Z,957.22
2017-11-10T01:19:50.539Z,957.2
2017-11-10T01:20:50.526Z,957.19
2017-11-10T01:21:50.511Z,957.18
2017-11-10T01:22:50.496Z,957.21
2017-11-10T01:23:50.483Z,957.2
2017-11-10T01:24:50.483Z,957.2
2017-11-10T01:25:50.456Z,957.19
2017-11-10T01:26:50.440Z,957.17
2017-11-10T01:27:50.435Z,957.15
2017-11-10T01:28:50.413Z,957.15
2017-11-10T01:29:50.425Z,957.19
2017-11-10T01:30:50.385Z,957.09
2017-11-10T01:31:50.370Z,957.09
2017-11-10T01:32:50.369Z,957.08
2017-11-10T01:33:50.341Z,957.08
2017-11-10T01:34:50.330Z,957.07
2017-11-10T01:35:50.314Z,957.09
2017-11-10T01:36:50.303Z,957.11
2017-11-10T01:37:50.285Z,957.07
2017-11-10T01:38:50.270Z,957.07
2017-11-10T01:39:50.278Z,957.11
2017-11-10T01:40:50.242Z,957.08
2017-11-10T01:41:50.228Z,957.08
2017-11-10T01:42:50.215Z,957.07
2017-11-10T01:43:50.201Z,957.11
2017-11-10T01:44:50.192Z,957.15
2017-11-10T01:45:50.172Z,957.09
2017-11-10T01:46:50.158Z,957.07
2017-11-10T01:47:50.145Z,957.08
2017-11-10T01:48:50.129Z,957.09
2017-11-10T01:49:50.116Z,957.11
2017-11-10T01:50:50.102Z,957.06
2017-11-10T01:51:50.088Z,957.03
2017-11-10T01:52:50.072Z,957.04
2017-11-10T01:53:50.059Z,956.99
2017-11-10T01:54:50.050Z,957.02
2017-11-10T01:55:50.030Z,957.03
2017-11-10T01:56:50.026Z,957.05
2017-11-10T01:57:50.002Z,957.08
2017-11-10T01:58:49.988Z,957.01
2017-11-10T01:59:49.987Z,957.03
2017-11-10T02:00:49.962Z,956.98
2017-11-10T02:01:49.947Z,956.95
2017-11-10T02:02:49.935Z,956.97
2017-11-10T02:03:49.918Z,956.95
2017-11-10T02:04:49.905Z,956.95
2017-11-10T02:05:49.911Z,956.98
2017-11-10T02:06:49.878Z,957.04
2017-11-10T02:07:49.861Z,957.05
2017-11-10T02:08:49.847Z,957.05
2017-11-10T02:09:49.835Z,957.03
2017-11-10T02:10:49.818Z,957.05
2017-11-10T02:11:49.803Z,957.03
2017-11-10T02:12:49.792Z,957.07
2017-11-10T02:13:49.777Z,957.07
2017-11-10T02:14:49.762Z,957.03
2017-11-10T02:15:49.767Z,957.03
2017-11-10T02:16:49.734Z,957.1
2017-11-10T02:17:49.720Z,957.01
2017-11-10T02:18:49.706Z,956.98
2017-11-10T02:19:49.691Z,956.96
2017-11-10T02:20:49.676Z,956.94
2017-11-10T02:21:49.664Z,956.96
2017-11-10T02:22:49.649Z,956.98
2017-11-10T02:23:49.638Z,956.98
2017-11-10T02:24:49.619Z,957
2017-11-10T02:25:49.611Z,957
2017-11-10T02:26:49.593Z,957.02
2017-11-10T02:27:49.579Z,957
2017-11-10T02:28:49.565Z,957.04
2017-11-10T02:29:49.555Z,956.95
2017-11-10T02:30:49.538Z,956.98
2017-11-10T02:31:49.524Z,956.98
2017-11-10T02:32:49.510Z,956.98
2017-11-10T02:33:49.495Z,956.92
2017-11-10T02:34:49.481Z,956.93
2017-11-10T02:35:49.466Z,956.97
2017-11-10T02:36:49.452Z,956.97
2017-11-10T02:37:49.438Z,956.95
2017-11-10T02:38:49.442Z,956.89
2017-11-10T02:39:49.411Z,956.9
2017-11-10T02:40:49.416Z,956.86
2017-11-10T02:41:49.382Z,956.88
2017-11-10T02:42:49.404Z,956.83
2017-11-10T02:43:49.354Z,956.81
2017-11-10T02:44:49.340Z,956.79
2017-11-10T02:45:49.334Z,956.79
2017-11-10T02:46:49.323Z,956.76
2017-11-10T02:47:49.297Z,956.71
2017-11-10T02:48:49.283Z,956.74
2017-11-10T02:49:49.275Z,956.74
2017-11-10T02:50:49.254Z,956.67
2017-11-10T02:51:49.244Z,956.64
2017-11-10T02:52:49.226Z,956.6
2017-11-10T02:53:49.217Z,956.6
2017-11-10T02:54:49.217Z,956.53
2017-11-10T02:55:49.187Z,956.59
2017-11-10T02:56:49.176Z,956.55
2017-11-10T02:57:49.154Z,956.53
2017-11-10T02:58:49.139Z,956.49
2017-11-10T02:59:49.125Z,956.49
2017-11-10T03:00:49.117Z,956.48
2017-11-10T03:01:49.097Z,956.43
2017-11-10T03:02:49.087Z,956.45
2017-11-10T03:03:49.068Z,956.47
2017-11-10T03:04:49.054Z,956.4
2017-11-10T03:05:49.037Z,956.42
2017-11-10T03:06:49.024Z,956.4
2017-11-10T03:07:49.011Z,956.38
2017-11-10T03:08:48.995Z,956.38
2017-11-10T03:09:48.979Z,956.33
2017-11-10T03:10:48.966Z,956.35
2017-11-10T03:11:48.950Z,956.3
2017-11-10T03:12:48.937Z,956.3
2017-11-10T03:13:48.924Z,956.33
2017-11-10T03:14:48.907Z,956.29
2017-11-10T03:15:48.892Z,956.31
2017-11-10T03:16:48.878Z,956.35
2017-11-10T03:17:48.863Z,956.33
2017-11-10T03:18:48.862Z,956.31
2017-11-10T03:19:48.834Z,956.27
2017-11-10T03:20:48.825Z,956.18
2017-11-10T03:21:48.806Z,956.16
2017-11-10T03:22:48.789Z,956.13
2017-11-10T03:23:48.799Z,956.1
2017-11-10T03:24:48.762Z,956.1
2017-11-10T03:25:48.745Z,956.08
2017-11-10T03:26:48.731Z,956.02
2017-11-10T03:27:48.716Z,956.03
2017-11-10T03:28:48.702Z,956
2017-11-10T03:29:48.689Z,955.97
2017-11-10T03:30:48.672Z,955.96
2017-11-10T03:31:48.672Z,955.9
2017-11-10T03:32:48.649Z,955.89
2017-11-10T03:33:48.649Z,955.89
2017-11-10T03:34:48.614Z,955.93
2017-11-10T03:35:48.597Z,956
2017-11-10T03:36:48.583Z,955.94
2017-11-10T03:37:48.567Z,955.99
2017-11-10T03:38:48.552Z,956.02
2017-11-10T03:39:48.537Z,955.97
2017-11-10T03:40:48.523Z,955.89
2017-11-10T03:41:48.507Z,955.86
2017-11-10T03:42:48.493Z,955.82
2017-11-10T03:43:48.478Z,955.81
2017-11-10T03:44:48.470Z,955.78
2017-11-10T03:45:48.448Z,955.74
2017-11-10T03:46:48.434Z,955.7
2017-11-10T03:47:48.418Z,955.73
2017-11-10T03:48:48.403Z,955.74
2017-11-10T03:49:48.389Z,955.73
2017-11-10T03:50:48.373Z,955.76
2017-11-10T03:51:48.361Z,955.7
2017-11-10T03:52:48.344Z,955.68
2017-11-10T03:53:48.328Z,955.64
2017-11-10T03:54:48.315Z,955.59
2017-11-10T03:55:48.298Z,955.55
2017-11-10T03:56:48.286Z,955.56
2017-11-10T03:57:48.271Z,955.47
2017-11-10T03:58:48.254Z,955.36
2017-11-10T03:59:48.239Z,955.31
2017-11-10T04:00:48.224Z,955.26
2017-11-10T04:01:48.209Z,955.3
2017-11-10T04:02:48.194Z,955.37
2017-11-10T04:03:48.178Z,955.37
2017-11-10T04:04:48.165Z,955.32
2017-11-10T04:05:48.150Z,955.37
2017-11-10T04:06:48.133Z,955.31
2017-11-10T04:07:48.119Z,955.3
2017-11-10T04:08:48.104Z,955.34
2017-11-10T04:09:48.091Z,955.35
2017-11-10T04:10:48.073Z,955.3
2017-11-10T04:11:48.061Z,955.36
2017-11-10T04:12:48.045Z,955.29
2017-11-10T04:13:48.031Z,955.26
2017-11-10T04:14:48.015Z,955.21
2017-11-10T04:15:48.002Z,955.16
2017-11-10T04:16:47.987Z,955.17
2017-11-10T04:17:47.970Z,955.07
2017-11-10T04:18:47.955Z,955.09
2017-11-10T04:19:47.941Z,955.1
2017-11-10T04:20:47.926Z,955.14
2017-11-10T04:21:47.910Z,955.14
2017-11-10T04:22:47.897Z,955.13
2017-11-10T04:23:47.882Z,955.19
2017-11-10T04:24:47.867Z,955.24
2017-11-10T04:25:47.851Z,955.19
2017-11-10T04:26:47.836Z,955.16
2017-11-10T04:27:47.822Z,955.08
2017-11-10T04:28:47.806Z,954.96
2017-11-10T04:29:47.791Z,954.91
2017-11-10T04:30:47.776Z,954.88
2017-11-10T04:31:47.762Z,954.94
2017-11-10T04:32:47.747Z,955.05
2017-11-10T04:33:47.732Z,955.06
2017-11-10T04:34:47.719Z,955.15
2017-11-10T04:35:47.703Z,955.21
2017-11-10T04:36:47.687Z,955.37
2017-11-10T04:37:47.672Z,955.49
2017-11-10T04:38:47.664Z,955.51
2017-11-10T04:39:47.642Z,955.4
2017-11-10T04:40:47.628Z,955.46
2017-11-10T04:41:47.616Z,955.36
2017-11-10T04:42:47.600Z,955.45
2017-11-10T04:43:47.583Z,955.47
2017-11-10T04:44:47.570Z,955.51
2017-11-10T04:45:47.553Z,955.49
2017-11-10T04:46:47.537Z,955.52
2017-11-10T04:47:47.537Z,955.44
2017-11-10T04:48:47.509Z,955.39
2017-11-10T04:49:47.493Z,955.36
2017-11-10T04:50:47.479Z,955.38
2017-11-10T04:51:47.464Z,955.34
2017-11-10T04:52:47.450Z,955.41
2017-11-10T04:53:47.435Z,955.39
2017-11-10T04:54:47.422Z,955.4
2017-11-10T04:55:47.406Z,955.4
2017-11-10T04:56:47.395Z,955.32
2017-11-10T04:57:47.376Z,955.38
2017-11-10T04:58:47.361Z,955.45
2017-11-10T04:59:47.345Z,955.36
2017-11-10T05:00:47.332Z,955.47
2017-11-10T05:01:47.335Z,955.48
2017-11-10T05:02:47.308Z,955.38
2017-11-10T05:03:47.287Z,955.37
2017-11-10T05:04:47.283Z,955.43
2017-11-10T05:05:47.257Z,955.43
2017-11-10T05:06:47.243Z,955.38
2017-11-10T05:07:47.228Z,955.42
2017-11-10T05:08:47.213Z,955.35
2017-11-10T05:09:47.198Z,955.32
2017-11-10T05:10:47.185Z,955.32
2017-11-10T05:11:47.171Z,955.26
2017-11-10T05:12:47.155Z,955.18
2017-11-10T05:13:47.141Z,955.16
2017-11-10T05:14:47.127Z,955.14
2017-11-10T05:15:47.112Z,955.08
2017-11-10T05:16:47.097Z,955.12
2017-11-10T05:17:47.088Z,955.1
2017-11-10T05:18:47.069Z,955.07
2017-11-10T05:19:47.052Z,955.08
2017-11-10T05:20:47.068Z,955.13
2017-11-10T05:21:47.024Z,955.16
2017-11-10T05:22:47.025Z,955.12
2017-11-10T05:23:47.014Z,955.09
2017-11-10T05:24:46.981Z,955.09
2017-11-10T05:25:46.967Z,955.11
2017-11-10T05:26:46.956Z,955.14
2017-11-10T05:27:46.935Z,955.14
2017-11-10T05:28:46.921Z,955.18
2017-11-10T05:29:46.907Z,955.26
2017-11-10T05:30:46.890Z,955.29
2017-11-10T05:31:46.878Z,955.31
2017-11-10T05:32:46.863Z,955.28
2017-11-10T05:33:46.849Z,955.33
2017-11-10T05:34:46.841Z,955.22
2017-11-10T05:35:46.824Z,955.25
2017-11-10T05:36:46.804Z,955.17
2017-11-10T05:37:46.802Z,955.21
2017-11-10T05:38:46.774Z,955.28
2017-11-10T05:39:46.761Z,955.25
2017-11-10T05:40:46.786Z,955.28
2017-11-10T05:41:46.731Z,955.31
2017-11-10T05:42:46.716Z,955.25
2017-11-10T05:43:46.702Z,955.25
2017-11-10T05:44:46.688Z,955.2
2017-11-10T05:45:46.673Z,955.22
2017-11-10T05:46:46.662Z,955.16
2017-11-10T05:47:46.648Z,955.14
2017-11-10T05:48:46.634Z,955.12
2017-11-10T05:49:46.622Z,955.07
2017-11-10T05:50:46.605Z,955.09
2017-11-10T05:51:46.589Z,955.03
2017-11-10T05:52:46.573Z,955
2017-11-10T05:53:46.557Z,954.98
2017-11-10T05:54:46.544Z,954.93
2017-11-10T05:55:46.530Z,954.88
2017-11-10T05:56:46.513Z,954.87
2017-11-10T05:57:46.501Z,954.83
2017-11-10T05:58:46.485Z,954.87
2017-11-10T05:59:46.471Z,954.87
2017-11-10T06:00:46.456Z,954.8
2017-11-10T06:01:46.442Z,954.87
2017-11-10T06:02:46.432Z,954.86
2017-11-10T06:03:46.412Z,954.87
2017-11-10T06:04:46.398Z,954.88
2017-11-10T06:05:46.385Z,954.87
2017-11-10T06:06:46.403Z,954.88
2017-11-10T06:07:46.356Z,954.89
2017-11-10T06:08:46.339Z,954.87
2017-11-10T06:09:46.326Z,954.87
2017-11-10T06:10:46.311Z,954.87
2017-11-10T06:11:46.295Z,954.91
2017-11-10T06:12:46.283Z,954.84
2017-11-10T06:13:46.267Z,954.86
2017-11-10T06:14:46.252Z,954.79
2017-11-10T06:15:46.238Z,954.79
2017-11-10T06:16:46.224Z,954.78
2017-11-10T06:17:46.210Z,954.78
2017-11-10T06:18:46.194Z,954.84
2017-11-10T06:19:46.178Z,954.82
2017-11-10T06:20:46.165Z,954.8
2017-11-10T06:21:46.152Z,954.88
2017-11-10T06:22:46.143Z,954.84
2017-11-10T06:23:46.120Z,954.84
2017-11-10T06:24:46.107Z,954.75
2017-11-10T06:25:46.091Z,954.8
2017-11-10T06:26:46.076Z,954.76
2017-11-10T06:27:46.088Z,954.75
2017-11-10T06:28:46.048Z,954.74
2017-11-10T06:29:46.032Z,954.75
2017-11-10T06:30:46.031Z,954.75
2017-11-10T06:31:46.004Z,954.82
2017-11-10T06:32:45.988Z,954.76
2017-11-10T06:33:45.973Z,954.74
2017-11-10T06:34:45.960Z,954.74
2017-11-10T06:35:45.949Z,954.69
2017-11-10T06:36:45.929Z,954.75
2017-11-10T06:37:45.915Z,954.74
2017-11-10T06:38:45.900Z,954.8
2017-11-10T06:39:45.887Z,954.79
2017-11-10T06:40:45.871Z,954.83
2017-11-10T06:41:45.856Z,954.74
2017-11-10T06:42:45.863Z,954.75
2017-11-10T06:43:45.826Z,954.63
2017-11-10T06:44:45.814Z,954.66
2017-11-10T06:45:45.797Z,954.63
2017-11-10T06:46:45.785Z,954.66
2017-11-10T06:47:45.768Z,954.67
2017-11-10T06:48:45.753Z,954.66
2017-11-10T06:49:45.737Z,954.67
2017-11-10T06:50:45.726Z,954.66
2017-11-10T06:51:45.708Z,954.64
2017-11-10T06:52:45.693Z,954.65
2017-11-10T06:53:45.680Z,954.72
2017-11-10T06:54:45.665Z,954.73
2017-11-10T06:55:45.649Z,954.72
2017-11-10T06:56:45.634Z,954.73
2017-11-10T06:57:45.651Z,954.79
2017-11-10T06:58:45.605Z,954.72
2017-11-10T06:59:45.591Z,954.74
2017-11-10T07:00:45.575Z,954.65
2017-11-10T07:01:45.588Z,954.7
2017-11-10T07:02:45.545Z,954.69
2017-11-10T07:03:45.532Z,954.7
2017-11-10T07:04:45.517Z,954.73
2017-11-10T07:05:45.502Z,954.72
2017-11-10T07:06:45.487Z,954.68
2017-11-10T07:07:45.494Z,954.62
2017-11-10T07:08:45.459Z,954.66
2017-11-10T07:09:45.445Z,954.72
2017-11-10T07:10:45.430Z,954.74
2017-11-10T07:11:45.429Z,954.78
2017-11-10T07:12:45.400Z,954.82
2017-11-10T07:13:45.385Z,954.7
2017-11-10T07:14:45.370Z,954.72
2017-11-10T07:15:45.355Z,954.71
2017-11-10T07:16:45.340Z,954.76
2017-11-10T07:17:45.326Z,954.74
2017-11-10T07:18:45.311Z,954.75
2017-11-10T07:19:45.297Z,954.71
2017-11-10T07:20:45.281Z,954.69
2017-11-10T07:21:45.268Z,954.74
2017-11-10T07:22:45.253Z,954.75
2017-11-10T07:23:45.238Z,954.74
2017-11-10T07:24:45.223Z,954.71
2017-11-10T07:25:45.209Z,954.69
2017-11-10T07:26:45.195Z,954.7
2017-11-10T07:27:45.178Z,954.66
2017-11-10T07:28:45.165Z,954.67
2017-11-10T07:29:45.149Z,954.66
2017-11-10T07:30:45.136Z,954.71
2017-11-10T07:31:45.120Z,954.71
2017-11-10T07:32:45.105Z,954.71
2017-11-10T07:33:45.092Z,954.71
2017-11-10T07:34:45.075Z,954.71
2017-11-10T07:35:45.061Z,954.65
2017-11-10T07:36:45.047Z,954.71
2017-11-10T07:37:45.032Z,954.67
2017-11-10T07:38:45.020Z,954.66
2017-11-10T07:39:45.003Z,954.69
2017-11-10T07:40:44.988Z,954.62
2017-11-10T07:41:44.997Z,954.65
2017-11-10T07:42:44.961Z,954.64
2017-11-10T07:43:44.944Z,954.64
2017-11-10T07:44:44.930Z,954.61
2017-11-10T07:45:44.913Z,954.6
2017-11-10T07:46:44.899Z,954.6
2017-11-10T07:47:44.884Z,954.64
2017-11-10T07:48:44.871Z,954.58
2017-11-10T07:49:44.857Z,954.59
2017-11-10T07:50:44.842Z,954.57
2017-11-10T07:51:44.828Z,954.57
2017-11-10T07:52:44.811Z,954.58
2017-11-10T07:53:44.798Z,954.59
2017-11-10T07:54:44.779Z,954.56
2017-11-10T07:55:44.776Z,954.48
2017-11-10T07:56:44.771Z,954.56
2017-11-10T07:57:44.734Z,954.52
2017-11-10T07:58:44.727Z,954.54
2017-11-10T07:59:44.707Z,954.58
2017-11-10T08:00:44.690Z,954.5
2017-11-10T08:01:44.676Z,954.51
2017-11-10T08:02:44.662Z,954.5
2017-11-10T08:03:44.660Z,954.55
2017-11-10T08:04:44.631Z,954.46
2017-11-10T08:05:44.617Z,954.45
2017-11-10T08:06:44.602Z,954.43
2017-11-10T08:07:44.586Z,954.44
2017-11-10T08:08:44.578Z,954.43
2017-11-10T08:09:44.558Z,954.43
2017-11-10T08:10:44.542Z,954.43
2017-11-10T08:11:44.530Z,954.44
2017-11-10T08:12:44.513Z,954.35
2017-11-10T08:13:44.499Z,954.41
2017-11-10T08:14:44.484Z,954.39
2017-11-10T08:15:44.469Z,954.39
2017-11-10T08:16:44.453Z,954.38
2017-11-10T08:17:44.443Z,954.4
2017-11-10T08:18:44.423Z,954.45
2017-11-10T08:19:44.409Z,954.4
2017-11-10T08:20:44.394Z,954.36
2017-11-10T08:21:44.379Z,954.33
2017-11-10T08:22:44.363Z,954.42
2017-11-10T08:23:44.351Z,954.29
2017-11-10T08:24:44.338Z,954.31
2017-11-10T08:25:44.329Z,954.3
2017-11-10T08:26:44.303Z,954.26
2017-11-10T08:27:44.290Z,954.31
2017-11-10T08:28:44.275Z,954.21
2017-11-10T08:29:44.259Z,954.21
2017-11-10T08:30:44.250Z,954.25
2017-11-10T08:31:44.230Z,954.28
2017-11-10T08:32:44.216Z,954.28
2017-11-10T08:33:44.205Z,954.34
2017-11-10T08:34:44.186Z,954.25
2017-11-10T08:35:44.171Z,954.27
2017-11-10T08:36:44.155Z,954.3
2017-11-10T08:37:44.140Z,954.22
2017-11-10T08:38:44.126Z,954.19
2017-11-10T08:39:44.117Z,954.26
2017-11-10T08:40:44.095Z,954.23
2017-11-10T08:41:44.082Z,954.12
2017-11-10T08:42:44.067Z,954.21
2017-11-10T08:43:44.052Z,954.14
2017-11-10T08:44:44.038Z,954.07
2017-11-10T08:45:44.023Z,954.07
2017-11-10T08:46:44.007Z,954.01
2017-11-10T08:47:43.994Z,954.02
2017-11-10T08:48:43.981Z,953.99
2017-11-10T08:49:43.963Z,954.05
2017-11-10T08:50:43.953Z,953.91
2017-11-10T08:51:43.944Z,953.93
2017-11-10T08:52:43.922Z,953.85
2017-11-10T08:53:43.907Z,953.91
2017-11-10T08:54:43.890Z,953.95
2017-11-10T08:55:43.874Z,953.93
2017-11-10T08:56:43.859Z,953.9
2017-11-10T08:57:43.845Z,953.89
2017-11-10T08:58:43.831Z,953.82
2017-11-10T08:59:43.819Z,953.84
2017-11-10T09:00:43.803Z,953.83
2017-11-10T09:01:43.787Z,953.81
2017-11-10T09:02:43.773Z,953.91
2017-11-10T09:03:43.757Z,953.88
2017-11-10T09:04:43.754Z,953.89
2017-11-10T09:05:43.729Z,953.9
2017-11-10T09:06:43.718Z,953.94
2017-11-10T09:07:43.705Z,953.95
2017-11-10T09:08:43.685Z,953.93
2017-11-10T09:09:43.688Z,953.94
2017-11-10T09:10:43.654Z,953.91
2017-11-10T09:11:43.640Z,953.92
2017-11-10T09:12:43.626Z,953.88
2017-11-10T09:13:43.610Z,953.89
2017-11-10T09:14:43.617Z,953.87
2017-11-10T09:15:43.582Z,953.89
2017-11-10T09:16:43.568Z,953.83
2017-11-10T09:17:43.551Z,953.75
2017-11-10T09:18:43.536Z,953.82
2017-11-10T09:19:43.545Z,953.82
2017-11-10T09:20:43.508Z,953.86
2017-11-10T09:21:43.493Z,953.84
2017-11-10T09:22:43.481Z,953.81
2017-11-10T09:23:43.464Z,953.8
2017-11-10T09:24:43.448Z,953.75
2017-11-10T09:25:43.438Z,953.76
2017-11-10T09:26:43.419Z,953.73
2017-11-10T09:27:43.405Z,953.74
2017-11-10T09:28:43.389Z,953.71
2017-11-10T09:29:43.375Z,953.77
2017-11-10T09:30:43.361Z,953.76
2017-11-10T09:31:43.345Z,953.69
2017-11-10T09:32:43.329Z,953.62
2017-11-10T09:33:43.318Z,953.59
2017-11-10T09:34:43.302Z,953.63
2017-11-10T09:35:43.287Z,953.66
2017-11-10T09:36:43.271Z,953.59
2017-11-10T09:37:43.257Z,953.62
2017-11-10T09:38:43.263Z,953.59
2017-11-10T09:39:43.228Z,953.48
2017-11-10T09:40:43.213Z,953.52
2017-11-10T09:41:43.200Z,953.49
2017-11-10T09:42:43.184Z,953.51
2017-11-10T09:43:43.167Z,953.53
2017-11-10T09:44:43.170Z,953.4
2017-11-10T09:45:43.140Z,953.39
2017-11-10T09:46:43.124Z,953.39
2017-11-10T09:47:43.110Z,953.34
2017-11-10T09:48:43.094Z,953.29
2017-11-10T09:49:43.082Z,953.38
2017-11-10T09:50:43.065Z,953.43
2017-11-10T09:51:43.052Z,953.36
2017-11-10T09:52:43.055Z,953.38
2017-11-10T09:53:43.056Z,953.32
2017-11-10T09:54:43.026Z,953.23
2017-11-10T09:55:42.993Z,953.27
2017-11-10T09:56:42.981Z,953.37
2017-11-10T09:57:42.964Z,953.36
2017-11-10T09:58:42.956Z,953.36
2017-11-10T09:59:42.935Z,953.4
2017-11-10T10:00:42.920Z,953.41
2017-11-10T10:01:42.904Z,953.36
2017-11-10T10:02:42.890Z,953.23
2017-11-10T10:03:42.876Z,953.18
2017-11-10T10:04:42.861Z,953.2
2017-11-10T10:05:42.845Z,953.21
2017-11-10T10:06:42.832Z,953.18
2017-11-10T10:07:42.817Z,953.18
2017-11-10T10:08:42.803Z,953.23
2017-11-10T10:09:42.787Z,953.24
2017-11-10T10:10:42.773Z,953.2
2017-11-10T10:11:42.767Z,953.15
2017-11-10T10:12:42.744Z,953.16
2017-11-10T10:13:42.729Z,953.06
2017-11-10T10:14:42.714Z,953.1
2017-11-10T10:15:42.702Z,953.06
2017-11-10T10:16:42.685Z,953.06
2017-11-10T10:17:42.670Z,952.96
2017-11-10T10:18:42.656Z,952.87
2017-11-10T10:19:42.641Z,952.96
2017-11-10T10:20:42.626Z,952.98
2017-11-10T10:21:42.614Z,952.94
2017-11-10T10:22:42.597Z,952.9
2017-11-10T10:23:42.583Z,952.93
2017-11-10T10:24:42.568Z,952.91
2017-11-10T10:25:42.558Z,952.96
2017-11-10T10:26:42.543Z,952.88
2017-11-10T10:27:42.525Z,952.88
2017-11-10T10:28:42.511Z,952.89
2017-11-10T10:29:42.496Z,952.96
2017-11-10T10:30:42.484Z,952.87
2017-11-10T10:31:42.466Z,952.84
2017-11-10T10:32:42.452Z,952.89
2017-11-10T10:33:42.442Z,952.84
2017-11-10T10:34:42.422Z,952.75
2017-11-10T10:35:42.408Z,952.81
2017-11-10T10:36:42.395Z,952.79
2017-11-10T10:37:42.383Z,952.83
2017-11-10T10:38:42.385Z,952.73
2017-11-10T10:39:42.350Z,952.75
2017-11-10T10:40:42.335Z,952.61
2017-11-10T10:41:42.320Z,952.64
2017-11-10T10:42:42.307Z,952.67
2017-11-10T10:43:42.297Z,952.66
2017-11-10T10:44:42.275Z,952.59
2017-11-10T10:45:42.261Z,952.54
2017-11-10T10:46:42.247Z,952.64
2017-11-10T10:47:42.231Z,952.54
2017-11-10T10:48:42.235Z,952.56
2017-11-10T10:49:42.202Z,952.55
2017-11-10T10:50:42.188Z,952.54
2017-11-10T10:51:42.173Z,952.47
2017-11-10T10:52:42.157Z,952.47
2017-11-10T10:53:42.143Z,952.57
2017-11-10T10:54:42.130Z,952.44
2017-11-10T10:55:42.117Z,952.4
2017-11-10T10:56:42.099Z,952.31
2017-11-10T10:57:42.091Z,952.33
2017-11-10T10:58:42.070Z,952.27
2017-11-10T10:59:42.055Z,952.2
2017-11-10T11:00:42.040Z,952.2
2017-11-10T11:01:42.026Z,952.17
2017-11-10T11:02:42.022Z,952.06
2017-11-10T11:03:42.000Z,952.09
2017-11-10T11:04:41.983Z,952.03
2017-11-10T11:05:41.967Z,952.05
2017-11-10T11:06:41.951Z,952.01
2017-11-10T11:07:41.941Z,951.9
2017-11-10T11:08:41.945Z,951.71
2017-11-10T11:09:41.928Z,951.76
2017-11-10T11:10:41.895Z,951.79
2017-11-10T11:11:41.881Z,951.8
2017-11-10T11:12:41.864Z,951.8
2017-11-10T11:13:41.852Z,951.86
2017-11-10T11:14:41.834Z,951.86
2017-11-10T11:15:41.822Z,951.88
2017-11-10T11:16:41.807Z,951.89
2017-11-10T11:17:41.792Z,951.86
2017-11-10T11:18:41.777Z,951.84
2017-11-10T11:19:41.764Z,951.9
2017-11-10T11:20:41.749Z,951.75
2017-11-10T11:21:41.740Z,951.85
2017-11-10T11:22:41.720Z,951.77
2017-11-10T11:23:41.706Z,951.76
2017-11-10T11:24:41.690Z,951.68
2017-11-10T11:25:41.675Z,951.76
2017-11-10T11:26:41.661Z,951.72
2017-11-10T11:27:41.648Z,951.69
2017-11-10T11:28:41.632Z,951.66
2017-11-10T11:29:41.619Z,951.66
2017-11-10T11:30:41.604Z,951.61
2017-11-10T11:31:41.606Z,951.65
2017-11-10T11:32:41.573Z,951.66
2017-11-10T11:33:41.560Z,951.63
2017-11-10T11:34:41.548Z,951.72
2017-11-10T11:35:41.530Z,951.76
2017-11-10T11:36:41.517Z,951.79
2017-11-10T11:37:41.506Z,951.72
2017-11-10T11:38:41.487Z,951.77
2017-11-10T11:39:41.471Z,951.84
2017-11-10T11:40:41.463Z,951.74
2017-11-10T11:41:41.443Z,951.72
2017-11-10T11:42:41.430Z,951.72
2017-11-10T11:43:41.414Z,951.67
2017-11-10T11:44:41.398Z,951.63
2017-11-10T11:45:41.386Z,951.64
2017-11-10T11:46:41.372Z,951.58
2017-11-10T11:47:41.354Z,951.58
2017-11-10T11:48:41.340Z,951.59
2017-11-10T11:49:41.326Z,951.57
2017-11-10T11:50:41.311Z,951.58
2017-11-10T11:51:41.296Z,951.57
2017-11-10T11:52:41.282Z,951.57
2017-11-10T11:53:41.267Z,951.5
2017-11-10T11:54:41.252Z,951.47
2017-11-10T11:55:41.253Z,951.42
2017-11-10T11:56:41.227Z,951.45
2017-11-10T11:57:41.209Z,951.43
2017-11-10T11:58:41.193Z,951.39
2017-11-10T11:59:41.180Z,951.36
2017-11-10T12:00:41.169Z,951.32
2017-11-10T12:01:41.150Z,951.34
2017-11-10T12:02:41.135Z,951.27
2017-11-10T12:03:41.120Z,951.37
2017-11-10T12:04:41.105Z,951.32
2017-11-10T12:05:41.091Z,951.36
2017-11-10T12:06:41.077Z,951.33
2017-11-10T12:07:41.062Z,951.32
2017-11-10T12:08:41.047Z,951.3
2017-11-10T12:09:41.034Z,951.19
2017-11-10T12:10:41.018Z,951.23
2017-11-10T12:11:41.005Z,951.19
2017-11-10T12:12:41.009Z,951.17
2017-11-10T12:13:40.975Z,951.14
2017-11-10T12:14:40.960Z,951.16
2017-11-10T12:15:40.946Z,951.1
2017-11-10T12:16:40.930Z,951.14
2017-11-10T12:17:40.915Z,951.08
2017-11-10T12:18:40.903Z,951.06
2017-11-10T12:19:40.886Z,951.03
2017-11-10T12:20:40.871Z,951.04
2017-11-10T12:21:40.856Z,951.08
2017-11-10T12:22:40.860Z,951.03
2017-11-10T12:23:40.828Z,951.06
2017-11-10T12:24:40.814Z,950.99
2017-11-10T12:25:40.798Z,951
2017-11-10T12:26:40.786Z,950.94
2017-11-10T12:27:40.770Z,950.93
2017-11-10T12:28:40.781Z,950.99
2017-11-10T12:29:40.740Z,950.99
2017-11-10T12:30:40.741Z,950.9
2017-11-10T12:31:40.710Z,950.9